F/V Ville Croisic 5 — FHZY — position and weather

sailwx.info

Track history (hours):
 
Tides and Currents Weather Stations Pressure Air Temp Water Temp Dewpoint Dewpoint Depression Visibility Wind Speed Wind Dir Waves Ship Positions

F/V Ville Croisic 5

Last reported at 2018-Feb-24 01:04 UTC. Time now 2018-Feb-26 01:58 UTC.
Position N 47°09' W 002°44'.

Length 21 m.

Type: Fishing. MMSI: 228920000.

Date/timePositionNaut miles runAvg speedWind from/ knotsBaromVisibWave heightAir tempDewpointWater temp
2018-Feb-24 01:04N 47°09' W 002°44'0 7.7
2018-Feb-24 01:00N 47°09' W 002°43'4 7.9
2018-Feb-24 00:29N 47°12' W 002°40'8 0.9
2018-Feb-23 14:54N 47°18' W 002°31'0 0.0
2018-Feb-23 14:30N 47°18' W 002°31'1 0.1
2018-Feb-23 00:05N 47°19' W 002°32'110.0
2018-Feb-23 00:00N 47°19' W 002°33'510.2
2018-Feb-22 23:30N 47°15' W 002°38'5 9.7
2018-Feb-22 22:59N 47°11' W 002°43'  
2018-Feb-20 00:29N 47°06' W 002°54'510.2
2018-Feb-19 23:59N 47°09' W 002°49'510.6
2018-Feb-19 23:30N 47°12' W 002°43'510.5
2018-Feb-19 23:00N 47°15' W 002°37'510.4
2018-Feb-19 22:29N 47°20' W 002°32'1 2.7
2018-Feb-19 22:00N 47°21' W 002°31'3 6.2
2018-Feb-19 21:30N 47°18' W 002°34'5 9.7
2018-Feb-19 20:59N 47°14' W 002°37'4 9.2
2018-Feb-19 20:30N 47°10' W 002°40'  
2018-Feb-17 01:35N 47°19' W 002°32'12 0.2
2018-Feb-15 01:09N 47°09' W 002°42'1 8.4
2018-Feb-15 00:59N 47°10' W 002°41'4 8.5
2018-Feb-15 00:30N 47°14' W 002°38'4 8.2
2018-Feb-15 00:00N 47°17' W 002°35'3 5.5
2018-Feb-14 23:30N 47°18' W 002°31'  
Track history (hours):
 
Tides and Currents Weather Stations Pressure Air Temp Water Temp Dewpoint Dewpoint Depression Visibility Wind Speed Wind Dir Waves Ship Positions

F/V Ville Croisic 5

Last reported at 2018-Feb-24 01:04 UTC. Time now 2018-Feb-26 01:58 UTC.
Position N 47°09' W 002°44'.

Length 21 m.

Type: Fishing. MMSI: 228920000.

Date/timePositionNaut miles runAvg speedWind from/ knotsBaromVisibWave heightAir tempDewpointWater temp
2018-Feb-24 01:04N 47°09' W 002°44'0 7.7
2018-Feb-24 01:00N 47°09' W 002°43'4 7.9
2018-Feb-24 00:29N 47°12' W 002°40'8 0.9
2018-Feb-23 14:54N 47°18' W 002°31'0 0.0
2018-Feb-23 14:30N 47°18' W 002°31'1 0.1
2018-Feb-23 00:05N 47°19' W 002°32'110.0
2018-Feb-23 00:00N 47°19' W 002°33'510.2
2018-Feb-22 23:30N 47°15' W 002°38'5 9.7
2018-Feb-22 22:59N 47°11' W 002°43'  
2018-Feb-20 00:29N 47°06' W 002°54'510.2
2018-Feb-19 23:59N 47°09' W 002°49'510.6
2018-Feb-19 23:30N 47°12' W 002°43'510.5
2018-Feb-19 23:00N 47°15' W 002°37'510.4
2018-Feb-19 22:29N 47°20' W 002°32'1 2.7
2018-Feb-19 22:00N 47°21' W 002°31'3 6.2
2018-Feb-19 21:30N 47°18' W 002°34'5 9.7
2018-Feb-19 20:59N 47°14' W 002°37'4 9.2
2018-Feb-19 20:30N 47°10' W 002°40'  
2018-Feb-17 01:35N 47°19' W 002°32'12 0.2
2018-Feb-15 01:09N 47°09' W 002°42'1 8.4
2018-Feb-15 00:59N 47°10' W 002°41'4 8.5
2018-Feb-15 00:30N 47°14' W 002°38'4 8.2
2018-Feb-15 00:00N 47°17' W 002°35'3 5.5
2018-Feb-14 23:30N 47°18' W 002°31'  

Dump ship's entire track history